Time;durP1;ratioP1;P1;durP2;ratioP2;P2;SDS_P1;SDS_P2;PMS_P1;PMS_P2;Temp;Humidity;BMP_temperature;BMP_pressure;BME280_temperature;BME280_humidity;BME280_pressure;Samples;Min_cycle;Max_cycle;Signal;HPM_P1;HPM_P2
2022/02/18 00:01:37;;;;;;;26.60;5.47;;;8.10;99.90;;;;;;4988410;28;25080;-62
2022/02/18 00:04:04;;;;;;;22.48;5.45;;;8.10;99.90;;;;;;4998699;28;25062;-62
2022/02/18 00:06:30;;;;;;;31.38;5.45;;;8.10;99.90;;;;;;5007785;28;25075;-62
2022/02/18 00:08:56;;;;;;;32.40;5.10;;;8.10;99.90;;;;;;4994606;28;25123;-62
2022/02/18 00:11:21;;;;;;;29.05;6.53;;;8.00;99.90;;;;;;5006072;28;25148;-62
2022/02/18 00:13:47;;;;;;;27.40;4.72;;;8.00;99.90;;;;;;5007710;28;25150;-62
2022/02/18 00:16:12;;;;;;;26.80;5.82;;;8.00;99.90;;;;;;5001992;28;25107;-62
2022/02/18 00:18:38;;;;;;;36.13;5.75;;;8.00;99.90;;;;;;5017573;28;25045;-62
2022/02/18 00:21:04;;;;;;;25.77;4.53;;;8.00;99.90;;;;;;5014234;28;25104;-62
2022/02/18 00:23:29;;;;;;;25.52;4.60;;;8.00;99.90;;;;;;5009790;28;25077;-62
2022/02/18 00:25:55;;;;;;;23.70;5.20;;;8.10;99.90;;;;;;5005977;28;25128;-61
2022/02/18 00:28:22;;;;;;;23.98;5.03;;;8.00;99.90;;;;;;4997527;28;25086;-61
2022/02/18 00:30:48;;;;;;;24.58;4.95;;;8.00;99.90;;;;;;5007720;28;25130;-62
2022/02/18 00:33:13;;;;;;;27.73;4.78;;;8.00;99.90;;;;;;5008781;28;25131;-62
2022/02/18 00:35:39;;;;;;;25.08;4.85;;;8.00;99.90;;;;;;5006845;28;25088;-62
2022/02/18 00:38:05;;;;;;;25.65;5.68;;;8.00;99.90;;;;;;5006836;28;25065;-62
2022/02/18 00:40:31;;;;;;;33.42;6.38;;;8.00;99.90;;;;;;5007979;28;25073;-61
2022/02/18 00:42:57;;;;;;;25.75;4.47;;;8.00;99.90;;;;;;5004134;28;25104;-62
2022/02/18 00:45:23;;;;;;;27.50;4.50;;;8.00;99.90;;;;;;4990177;28;25078;-62
2022/02/18 00:47:50;;;;;;;28.23;4.93;;;8.00;99.90;;;;;;4993701;28;25143;-62
2022/02/18 00:50:17;;;;;;;28.35;5.22;;;8.00;99.90;;;;;;5011551;28;25073;-62
2022/02/18 00:52:43;;;;;;;19.65;4.30;;;8.00;99.90;;;;;;5006424;28;25059;-62
2022/02/18 00:55:09;;;;;;;21.25;5.65;;;7.90;99.90;;;;;;4988096;28;25105;-61
2022/02/18 00:57:36;;;;;;;22.42;4.55;;;8.00;99.90;;;;;;4986115;28;25024;-62
2022/02/18 01:00:04;;;;;;;27.45;4.55;;;8.00;99.90;;;;;;4990579;28;25073;-63
2022/02/18 01:02:30;;;;;;;21.48;5.30;;;8.00;99.90;;;;;;4988921;28;25154;-63
2022/02/18 01:04:55;;;;;;;17.13;4.05;;;8.00;99.90;;;;;;5002067;28;25114;-61
2022/02/18 01:07:23;;;;;;;29.27;4.30;;;8.00;99.90;;;;;;5006220;28;25092;-61
2022/02/18 01:09:49;;;;;;;27.02;5.43;;;8.10;99.90;;;;;;4990080;28;25133;-61
2022/02/18 01:12:14;;;;;;;22.10;4.38;;;8.00;99.90;;;;;;5006409;28;25060;-62
2022/02/18 01:14:40;;;;;;;22.02;5.05;;;8.00;99.90;;;;;;4992640;28;25063;-62
2022/02/18 01:17:05;;;;;;;31.00;6.15;;;8.10;99.90;;;;;;5006746;28;25067;-61
2022/02/18 01:19:31;;;;;;;38.92;5.25;;;8.10;99.90;;;;;;4990877;28;25069;-62
2022/02/18 01:21:57;;;;;;;25.77;6.22;;;8.10;99.90;;;;;;4988752;28;25074;-62
2022/02/18 01:24:22;;;;;;;29.02;5.90;;;8.10;99.90;;;;;;5000286;28;25098;-62
2022/02/18 01:26:48;;;;;;;21.70;5.07;;;8.10;99.90;;;;;;5000176;28;25068;-61
2022/02/18 01:29:13;;;;;;;26.45;5.85;;;8.10;99.90;;;;;;5005382;28;25076;-62
2022/02/18 01:31:39;;;;;;;19.98;4.80;;;8.20;99.90;;;;;;4997515;28;25129;-62
2022/02/18 01:34:05;;;;;;;34.53;6.20;;;8.20;99.90;;;;;;4994693;28;25117;-63
2022/02/18 01:36:30;;;;;;;34.90;6.13;;;8.20;99.90;;;;;;4999860;28;25099;-61
2022/02/18 01:38:56;;;;;;;28.70;5.38;;;8.10;99.90;;;;;;5006661;28;25084;-61
2022/02/18 01:41:21;;;;;;;21.00;5.32;;;8.20;99.90;;;;;;5005951;28;25100;-62
2022/02/18 01:43:53;;;;;;;31.60;5.82;;;8.20;99.90;;;;;;5003628;28;25081;-63
2022/02/18 01:46:20;;;;;;;27.70;6.72;;;8.30;99.90;;;;;;4990258;28;25111;-61
2022/02/18 01:48:45;;;;;;;30.38;5.78;;;8.20;99.90;;;;;;5005255;28;25071;-61
2022/02/18 01:51:11;;;;;;;31.10;6.13;;;8.30;99.90;;;;;;5006346;28;25061;-62
2022/02/18 01:53:38;;;;;;;26.98;5.10;;;8.30;99.90;;;;;;5000460;28;25064;-61
2022/02/18 01:56:05;;;;;;;39.45;5.78;;;8.30;99.90;;;;;;5007382;28;25145;-61
2022/02/18 01:58:31;;;;;;;39.03;7.07;;;8.30;99.90;;;;;;5003595;28;25058;-62
2022/02/18 02:00:57;;;;;;;28.77;5.78;;;8.30;99.90;;;;;;4993797;28;25079;-63
2022/02/18 02:03:23;;;;;;;34.00;7.15;;;8.30;99.90;;;;;;5005788;28;25110;-61
2022/02/18 02:05:51;;;;;;;32.75;5.97;;;8.30;99.90;;;;;;5008118;28;25052;-61
2022/02/18 02:08:17;;;;;;;28.00;5.80;;;8.30;99.90;;;;;;5010555;28;25083;-62
2022/02/18 02:10:46;;;;;;;33.45;7.18;;;8.30;99.90;;;;;;5008218;28;25088;-62
2022/02/18 02:13:31;;;;;;;42.92;8.27;;;8.30;99.90;;;;;;5007055;28;25123;-62
2022/02/18 02:15:57;;;;;;;34.50;6.80;;;8.30;99.90;;;;;;5009033;28;25096;-63
2022/02/18 02:18:23;;;;;;;38.70;7.38;;;8.40;99.90;;;;;;5001893;28;25073;-62
2022/02/18 02:20:48;;;;;;;39.88;8.05;;;8.40;99.90;;;;;;4991265;28;25129;-62
2022/02/18 02:23:15;;;;;;;40.58;8.18;;;8.40;99.90;;;;;;5004548;28;25060;-62
2022/02/18 02:25:41;;;;;;;52.88;8.63;;;8.30;99.90;;;;;;5001529;28;25061;-62
2022/02/18 02:28:07;;;;;;;46.90;8.77;;;8.30;99.90;;;;;;5015809;28;25110;-62
2022/02/18 02:30:32;;;;;;;35.60;7.95;;;8.30;99.90;;;;;;4995399;28;25070;-62
2022/02/18 02:32:58;;;;;;;43.70;8.40;;;8.30;99.90;;;;;;5007302;28;25101;-63
2022/02/18 02:35:23;;;;;;;55.80;9.18;;;8.40;99.90;;;;;;5011531;28;25177;-63
2022/02/18 02:37:49;;;;;;;53.78;9.40;;;8.40;99.90;;;;;;4995411;28;25072;-62
2022/02/18 02:40:18;;;;;;;51.85;9.43;;;8.40;99.90;;;;;;5004974;28;25060;-62
2022/02/18 02:42:45;;;;;;;56.25;10.52;;;8.40;99.90;;;;;;5005302;28;25076;-62
2022/02/18 02:45:10;;;;;;;59.70;11.20;;;8.30;99.90;;;;;;4993002;28;25034;-63
2022/02/18 02:47:38;;;;;;;61.28;11.00;;;8.30;99.90;;;;;;5009421;28;25078;-63
2022/02/18 02:50:05;;;;;;;59.17;10.75;;;8.30;99.90;;;;;;5006337;28;25080;-62
2022/02/18 02:52:30;;;;;;;58.83;9.27;;;8.40;99.90;;;;;;4990416;28;25114;-62
2022/02/18 02:54:56;;;;;;;54.28;9.82;;;8.40;99.90;;;;;;4990866;28;24737;-61
2022/02/18 02:57:22;;;;;;;44.72;10.20;;;8.50;99.90;;;;;;4990158;28;25164;-62
2022/02/18 02:59:47;;;;;;;52.15;9.45;;;8.50;99.90;;;;;;5003178;28;24839;-61
2022/02/18 03:02:13;;;;;;;59.25;11.60;;;8.50;99.90;;;;;;5009351;28;25057;-62
2022/02/18 03:04:39;;;;;;;52.35;10.98;;;8.40;99.90;;;;;;4990088;28;25128;-62
2022/02/18 03:07:05;;;;;;;65.13;11.18;;;8.40;99.90;;;;;;4999129;28;25069;-62
2022/02/18 03:09:30;;;;;;;62.72;10.55;;;8.40;99.90;;;;;;5008593;28;25167;-61
2022/02/18 03:11:56;;;;;;;61.55;10.70;;;8.40;99.90;;;;;;5003568;28;25065;-61
2022/02/18 03:14:21;;;;;;;60.38;10.63;;;8.50;99.90;;;;;;5001730;28;25073;-61
2022/02/18 03:16:47;;;;;;;63.42;11.82;;;8.50;99.90;;;;;;5008510;28;25072;-61
2022/02/18 03:19:13;;;;;;;50.72;10.55;;;8.50;99.90;;;;;;4994350;28;25097;-61
2022/02/18 03:21:38;;;;;;;59.70;10.25;;;8.50;99.90;;;;;;4988829;28;25068;-61
2022/02/18 03:24:04;;;;;;;50.38;9.20;;;8.50;99.90;;;;;;5002934;28;25069;-61
2022/02/18 03:26:30;;;;;;;45.60;8.65;;;8.50;99.90;;;;;;5007166;28;25063;-61
2022/02/18 03:28:55;;;;;;;52.00;10.13;;;8.50;99.90;;;;;;4995766;28;25067;-62
2022/02/18 03:31:21;;;;;;;55.80;9.52;;;8.60;99.90;;;;;;4992924;28;25167;-61
2022/02/18 03:33:46;;;;;;;52.95;9.55;;;8.60;99.90;;;;;;5006042;28;25068;-61
2022/02/18 03:36:12;;;;;;;59.55;10.23;;;8.60;99.90;;;;;;5007563;28;25111;-62
2022/02/18 03:38:38;;;;;;;55.83;10.20;;;8.60;99.90;;;;;;4994192;28;25148;-62
2022/02/18 03:41:04;;;;;;;52.13;9.93;;;8.60;99.90;;;;;;5007666;28;25069;-62
2022/02/18 03:43:30;;;;;;;49.05;10.13;;;8.60;99.90;;;;;;5001382;28;25074;-60
2022/02/18 03:45:55;;;;;;;53.28;11.25;;;8.50;99.90;;;;;;5007801;28;25067;-61
2022/02/18 03:48:21;;;;;;;60.20;11.75;;;8.40;99.90;;;;;;5001083;28;25057;-61
2022/02/18 03:50:46;;;;;;;66.80;11.50;;;8.40;99.90;;;;;;4998225;28;25076;-61
2022/02/18 03:53:14;;;;;;;47.03;10.65;;;8.30;99.90;;;;;;4988245;28;25083;-61
2022/02/18 03:55:40;;;;;;;55.30;10.35;;;8.30;99.90;;;;;;4988456;28;25054;-61
2022/02/18 03:58:05;;;;;;;59.92;11.23;;;8.20;99.90;;;;;;4992677;28;25074;-61
2022/02/18 04:00:31;;;;;;;56.08;9.98;;;8.20;99.90;;;;;;4990166;28;25064;-61
2022/02/18 04:02:56;;;;;;;49.70;9.55;;;8.20;99.90;;;;;;4994286;28;25062;-61
2022/02/18 04:05:22;;;;;;;59.72;10.43;;;8.20;99.90;;;;;;4989839;28;25079;-61
2022/02/18 04:07:48;;;;;;;53.72;10.00;;;8.10;99.90;;;;;;4988654;28;25078;-61
2022/02/18 04:10:14;;;;;;;57.72;9.35;;;8.10;99.90;;;;;;4996315;28;25151;-61
2022/02/18 04:12:39;;;;;;;55.80;10.05;;;8.10;99.90;;;;;;5008101;28;25094;-62
2022/02/18 04:15:05;;;;;;;54.95;9.90;;;8.00;99.90;;;;;;4987651;28;25091;-61
2022/02/18 04:17:32;;;;;;;51.28;10.40;;;8.00;99.90;;;;;;5002514;23;25062;-70
2022/02/18 04:19:58;;;;;;;51.33;9.50;;;8.00;99.90;;;;;;5008928;28;25067;-70
2022/02/18 04:22:24;;;;;;;62.72;11.45;;;8.00;99.90;;;;;;5027907;28;25068;-70
2022/02/18 04:24:50;;;;;;;63.63;11.70;;;8.00;99.90;;;;;;5016977;28;25078;-70
2022/02/18 04:27:15;;;;;;;46.45;8.48;;;8.00;99.90;;;;;;4989480;28;25049;-72
2022/02/18 04:29:41;;;;;;;47.72;9.13;;;8.00;99.90;;;;;;5007694;28;25118;-69
2022/02/18 04:32:07;;;;;;;53.35;9.07;;;8.10;99.90;;;;;;4989695;28;25098;-69
2022/02/18 04:34:32;;;;;;;48.53;9.20;;;8.10;99.90;;;;;;5007510;28;25072;-69
2022/02/18 04:36:58;;;;;;;50.95;9.55;;;8.10;99.90;;;;;;5008358;28;25054;-72
2022/02/18 04:39:24;;;;;;;53.17;9.48;;;8.10;99.90;;;;;;4989366;28;25144;-69
2022/02/18 04:41:50;;;;;;;48.67;8.25;;;8.20;99.90;;;;;;5007398;28;25096;-69
2022/02/18 04:44:16;;;;;;;48.85;8.68;;;8.20;99.90;;;;;;5007787;28;25063;-70
2022/02/18 04:46:42;;;;;;;55.85;10.02;;;8.10;99.90;;;;;;5008077;28;25103;-70
2022/02/18 04:49:08;;;;;;;42.95;9.32;;;8.10;99.90;;;;;;5009053;28;25131;-70
2022/02/18 04:51:33;;;;;;;51.50;8.98;;;8.10;99.90;;;;;;4990925;28;25079;-69
2022/02/18 04:53:59;;;;;;;54.75;9.80;;;8.10;99.90;;;;;;5007899;28;25053;-69
2022/02/18 04:56:24;;;;;;;42.67;7.80;;;8.10;99.90;;;;;;5007459;28;25059;-70
2022/02/18 04:58:50;;;;;;;45.38;7.88;;;8.10;99.90;;;;;;5007770;28;25082;-71
2022/02/18 05:01:16;;;;;;;44.30;7.82;;;8.10;99.90;;;;;;5008753;28;25140;-69
2022/02/18 05:03:42;;;;;;;45.03;6.78;;;8.10;99.90;;;;;;5007516;28;25069;-70
2022/02/18 05:06:09;;;;;;;38.50;7.55;;;8.20;99.90;;;;;;5007141;28;25060;-69
2022/02/18 05:08:35;;;;;;;50.22;8.52;;;8.10;99.90;;;;;;5002148;28;25064;-70
2022/02/18 05:11:00;;;;;;;43.53;7.95;;;8.10;99.90;;;;;;4984925;28;25174;-69
2022/02/18 05:13:26;;;;;;;48.22;7.88;;;8.10;99.90;;;;;;4994923;28;25105;-69
2022/02/18 05:15:51;;;;;;;37.58;8.48;;;8.10;99.90;;;;;;5003243;28;25148;-70
2022/02/18 05:18:17;;;;;;;44.08;7.72;;;8.20;99.90;;;;;;4999024;28;25086;-70
2022/02/18 05:20:43;;;;;;;44.45;8.75;;;8.20;99.90;;;;;;5004901;28;25067;-70
2022/02/18 05:23:08;;;;;;;43.72;8.45;;;8.10;99.90;;;;;;5008700;28;25030;-70
2022/02/18 05:25:34;;;;;;;39.22;7.97;;;8.10;99.90;;;;;;5009294;28;25078;-70
2022/02/18 05:28:04;;;;;;;51.65;10.00;;;8.20;99.90;;;;;;5006699;28;25146;-70
2022/02/18 05:30:30;;;;;;;43.50;9.20;;;8.20;99.90;;;;;;5001982;28;25140;-70
2022/02/18 05:32:56;;;;;;;48.85;8.43;;;8.10;99.90;;;;;;5008260;28;25151;-70
2022/02/18 05:35:21;;;;;;;36.72;7.70;;;8.10;99.90;;;;;;5004459;28;25068;-69
2022/02/18 05:37:47;;;;;;;42.28;7.78;;;8.10;99.90;;;;;;4993251;28;25053;-70
2022/02/18 05:40:13;;;;;;;37.85;7.35;;;8.00;99.90;;;;;;4992918;28;25095;-71
2022/02/18 05:42:39;;;;;;;43.85;8.20;;;8.00;99.90;;;;;;5010098;28;25056;-70
2022/02/18 05:45:05;;;;;;;38.03;7.45;;;8.00;99.90;;;;;;5010538;28;25076;-69
2022/02/18 05:47:35;;;;;;;38.72;7.07;;;8.00;99.90;;;;;;5007669;28;25068;-69
2022/02/18 05:50:08;;;;;;;35.92;7.35;;;8.10;99.90;;;;;;5011586;28;25141;-70
2022/02/18 05:52:34;;;;;;;30.83;6.97;;;8.10;99.90;;;;;;5010231;28;25087;-68
2022/02/18 05:55:00;;;;;;;33.00;6.32;;;8.10;99.90;;;;;;5011179;28;25071;-70
2022/02/18 05:57:25;;;;;;;35.35;8.32;;;8.10;99.90;;;;;;5011275;28;25128;-72
2022/02/18 05:59:51;;;;;;;31.95;6.40;;;8.10;99.90;;;;;;5011564;28;25053;-71
2022/02/18 06:02:16;;;;;;;44.38;7.05;;;8.10;99.90;;;;;;5011045;28;25133;-71
2022/02/18 06:04:42;;;;;;;52.33;7.72;;;8.00;99.90;;;;;;5010287;28;25093;-71
2022/02/18 06:07:08;;;;;;;51.60;9.10;;;8.00;99.90;;;;;;5010731;28;25075;-72
2022/02/18 06:09:34;;;;;;;42.05;8.73;;;7.90;99.90;;;;;;5012161;28;25066;-71
2022/02/18 06:11:59;;;;;;;51.80;8.40;;;7.90;99.90;;;;;;5010416;28;25157;-71
2022/02/18 06:14:25;;;;;;;41.78;7.80;;;7.90;99.90;;;;;;4989946;28;25054;-71
2022/02/18 06:16:53;;;;;;;49.85;8.75;;;7.80;99.90;;;;;;5004030;28;25134;-71
2022/02/18 06:19:19;;;;;;;58.00;9.27;;;7.80;99.90;;;;;;5015107;28;25100;-71
2022/02/18 06:21:45;;;;;;;52.67;8.32;;;7.70;99.90;;;;;;5011255;28;25106;-73
2022/02/18 06:24:10;;;;;;;48.50;9.48;;;7.70;99.90;;;;;;5004165;28;25075;-70
2022/02/18 06:26:36;;;;;;;39.88;7.90;;;7.70;99.90;;;;;;4997044;28;25106;-72
2022/02/18 06:29:03;;;;;;;48.15;9.57;;;7.70;99.90;;;;;;4999312;28;25063;-72
2022/02/18 06:31:28;;;;;;;41.08;7.78;;;7.70;99.90;;;;;;5000659;28;25107;-72
2022/02/18 06:33:54;;;;;;;42.67;8.68;;;7.60;99.90;;;;;;5000391;28;25080;-72
2022/02/18 06:36:20;;;;;;;52.88;8.80;;;7.60;99.90;;;;;;4998598;28;25103;-71
2022/02/18 06:38:45;;;;;;;48.30;8.70;;;7.60;99.90;;;;;;5001841;28;25098;-72
2022/02/18 06:41:13;;;;;;;41.65;8.30;;;7.60;99.90;;;;;;5000364;28;25055;-74
2022/02/18 06:43:39;;;;;;;46.35;8.75;;;7.60;99.90;;;;;;4997552;28;25128;-71
2022/02/18 06:46:04;;;;;;;47.95;8.38;;;7.60;99.90;;;;;;4999521;28;25071;-71
2022/02/18 06:48:30;;;;;;;57.80;9.95;;;7.60;99.90;;;;;;4995279;28;25061;-72
2022/02/18 06:50:56;;;;;;;46.90;8.57;;;7.60;99.90;;;;;;4982971;28;25103;-71
2022/02/18 06:53:22;;;;;;;36.92;8.50;;;7.70;99.90;;;;;;4996847;28;25080;-70
2022/02/18 06:55:47;;;;;;;43.60;8.57;;;7.60;99.90;;;;;;4996548;28;25110;-71
2022/02/18 06:58:13;;;;;;;37.28;7.07;;;7.70;99.90;;;;;;5000075;28;25105;-70
2022/02/18 07:00:39;;;;;;;57.75;10.18;;;7.60;99.90;;;;;;5013094;28;25046;-70
2022/02/18 07:03:07;;;;;;;48.03;8.35;;;7.70;99.90;;;;;;5000767;28;25166;-70
2022/02/18 07:05:32;;;;;;;43.38;8.40;;;7.70;99.90;;;;;;5005793;28;25085;-74
2022/02/18 07:07:58;;;;;;;50.60;9.75;;;7.80;99.90;;;;;;4996070;28;25067;-70
2022/02/18 07:10:23;;;;;;;52.17;9.57;;;7.80;99.90;;;;;;5008958;28;25084;-69
2022/02/18 07:12:49;;;;;;;60.42;9.52;;;7.80;99.90;;;;;;5011652;28;25081;-70
2022/02/18 07:15:14;;;;;;;45.03;8.95;;;7.80;99.90;;;;;;5007670;28;25073;-73
2022/02/18 07:17:40;;;;;;;46.03;8.90;;;7.90;99.90;;;;;;5014648;28;25066;-72
2022/02/18 07:20:10;;;;;;;38.78;9.32;;;7.90;99.90;;;;;;5002183;28;25129;-72
2022/02/18 07:22:37;;;;;;;45.25;9.90;;;8.00;99.90;;;;;;5008940;28;25093;-70
2022/02/18 07:25:05;;;;;;;34.58;8.00;;;8.00;99.90;;;;;;5023799;28;25149;-72
2022/02/18 07:27:31;;;;;;;39.90;7.80;;;8.10;99.90;;;;;;5014789;28;25085;-72
2022/02/18 07:29:56;;;;;;;40.47;9.82;;;8.20;99.90;;;;;;5013156;28;25110;-72
2022/02/18 07:32:24;;;;;;;52.35;9.45;;;8.10;99.90;;;;;;5013704;28;25077;-71
2022/02/18 07:34:50;;;;;;;38.53;10.02;;;8.20;99.90;;;;;;5010457;28;25231;-74
2022/02/18 07:37:16;;;;;;;35.67;9.18;;;8.20;99.90;;;;;;4993215;28;25088;-74
2022/02/18 07:39:42;;;;;;;39.78;10.43;;;8.30;99.90;;;;;;5011652;28;25068;-73
2022/02/18 07:42:10;;;;;;;39.90;11.45;;;8.40;99.90;;;;;;5003700;28;25115;-74
2022/02/18 07:44:36;;;;;;;32.10;11.07;;;8.50;99.90;;;;;;5003240;28;25061;-74
2022/02/18 07:47:03;;;;;;;32.38;11.65;;;8.50;99.90;;;;;;5004669;28;25139;-73
2022/02/18 07:49:28;;;;;;;32.83;12.63;;;8.60;99.90;;;;;;5003899;28;25072;-73
2022/02/18 07:51:55;;;;;;;29.60;14.10;;;8.70;99.90;;;;;;5011807;28;25058;-74
2022/02/18 07:54:21;;;;;;;27.33;12.60;;;8.80;99.90;;;;;;5014467;28;25077;-71
2022/02/18 07:56:46;;;;;;;26.02;14.18;;;8.90;99.90;;;;;;5016446;28;25069;-75
2022/02/18 07:59:12;;;;;;;27.48;15.57;;;9.00;99.90;;;;;;5011346;28;25076;-74
2022/02/18 08:01:38;;;;;;;30.17;14.73;;;9.00;99.90;;;;;;5006885;28;25064;-74
2022/02/18 08:04:04;;;;;;;27.13;15.63;;;9.10;99.90;;;;;;5008462;28;25073;-74
2022/02/18 08:06:30;;;;;;;36.30;15.05;;;9.20;99.90;;;;;;4989691;28;25066;-74
2022/02/18 08:08:56;;;;;;;27.65;16.60;;;9.20;99.90;;;;;;5000421;28;25059;-74
2022/02/18 08:11:21;;;;;;;27.48;15.20;;;9.30;99.90;;;;;;5004958;28;25040;-73
2022/02/18 08:13:47;;;;;;;33.10;16.85;;;9.40;99.90;;;;;;5012924;28;25112;-73
2022/02/18 08:16:15;;;;;;;24.17;15.18;;;9.40;99.90;;;;;;4988019;28;25105;-73
2022/02/18 08:18:43;;;;;;;25.38;15.38;;;9.40;99.90;;;;;;5001912;28;25191;-74
2022/02/18 08:21:10;;;;;;;24.67;13.95;;;9.40;99.90;;;;;;4995062;28;25074;-73
2022/02/18 08:23:36;;;;;;;31.80;14.27;;;9.50;99.90;;;;;;4992570;28;25075;-77
2022/02/18 08:26:02;;;;;;;23.45;15.90;;;9.50;99.90;;;;;;4999404;28;25100;-74
2022/02/18 08:28:28;;;;;;;20.98;13.25;;;9.60;99.90;;;;;;4991535;28;25146;-74
2022/02/18 08:30:54;;;;;;;23.98;13.05;;;9.60;99.90;;;;;;5000766;28;25059;-74
2022/02/18 08:33:19;;;;;;;23.13;12.52;;;9.70;99.90;;;;;;4991311;28;25065;-74
2022/02/18 08:35:46;;;;;;;24.55;12.00;;;9.70;99.90;;;;;;5008303;28;25067;-72
2022/02/18 08:38:11;;;;;;;23.25;12.32;;;9.70;99.90;;;;;;5009540;28;25098;-73
2022/02/18 08:40:37;;;;;;;21.00;11.07;;;9.80;99.90;;;;;;5011008;28;25054;-73
2022/02/18 08:43:03;;;;;;;21.77;10.73;;;9.70;99.90;;;;;;5010554;28;25160;-74
2022/02/18 08:45:29;;;;;;;20.17;9.90;;;9.80;99.90;;;;;;5005758;28;25054;-75
2022/02/18 08:47:56;;;;;;;21.98;8.75;;;9.80;99.90;;;;;;5009603;28;25083;-76
2022/02/18 08:50:21;;;;;;;20.70;8.30;;;9.90;99.90;;;;;;5007675;28;25110;-74
2022/02/18 08:52:47;;;;;;;17.70;8.80;;;9.90;99.90;;;;;;5008722;28;25185;-74
2022/02/18 08:55:14;;;;;;;17.48;6.70;;;9.90;99.90;;;;;;5009628;28;25059;-75
2022/02/18 08:57:41;;;;;;;17.33;6.82;;;10.00;99.90;;;;;;5009303;28;25139;-75
2022/02/18 09:00:08;;;;;;;15.52;6.25;;;10.10;99.90;;;;;;5009233;28;25051;-72
2022/02/18 09:02:35;;;;;;;16.15;5.40;;;10.10;99.90;;;;;;5008971;28;25061;-73
2022/02/18 09:05:01;;;;;;;9.38;4.95;;;10.10;99.90;;;;;;4991502;28;25136;-75
2022/02/18 09:07:27;;;;;;;15.88;5.65;;;10.20;99.90;;;;;;5017795;28;25083;-73
2022/02/18 09:09:54;;;;;;;11.35;4.03;;;10.30;99.90;;;;;;5022240;28;25063;-75
2022/02/18 09:12:20;;;;;;;11.07;4.68;;;10.30;99.90;;;;;;5011787;28;25065;-73
2022/02/18 09:14:45;;;;;;;12.23;4.50;;;10.40;99.90;;;;;;5010163;28;25072;-74
2022/02/18 09:17:11;;;;;;;11.50;3.80;;;10.40;99.90;;;;;;5009340;28;25118;-72
2022/02/18 09:19:37;;;;;;;13.02;4.38;;;10.50;99.90;;;;;;5009267;28;25090;-73
2022/02/18 09:22:03;;;;;;;8.98;3.90;;;10.60;99.90;;;;;;5010329;28;25060;-73
2022/02/18 09:24:28;;;;;;;11.45;4.30;;;10.60;99.90;;;;;;5010859;28;25070;-73
2022/02/18 09:26:54;;;;;;;5.90;2.85;;;10.70;99.90;;;;;;4996037;28;25062;-73
2022/02/18 09:29:20;;;;;;;9.20;4.10;;;10.80;99.90;;;;;;5013820;28;25122;-71
2022/02/18 09:31:46;;;;;;;11.35;3.92;;;10.80;99.90;;;;;;5016831;28;25082;-73
2022/02/18 09:34:12;;;;;;;10.35;4.22;;;10.90;99.90;;;;;;5016844;28;25115;-74
2022/02/18 09:36:37;;;;;;;6.88;3.53;;;10.90;99.90;;;;;;5017535;28;25100;-74
2022/02/18 09:39:05;;;;;;;8.38;3.85;;;10.90;99.90;;;;;;5018503;28;25112;-75
2022/02/18 09:41:31;;;;;;;6.65;3.55;;;10.90;99.90;;;;;;5018400;28;25063;-74
2022/02/18 09:44:01;;;;;;;7.88;3.83;;;10.90;99.90;;;;;;5000313;28;25092;-76
2022/02/18 09:46:28;;;;;;;7.68;3.97;;;11.00;99.90;;;;;;5016575;28;25119;-74
2022/02/18 09:48:54;;;;;;;6.68;3.38;;;11.00;99.90;;;;;;5015393;28;25073;-73
2022/02/18 09:51:20;;;;;;;7.80;3.60;;;11.10;99.90;;;;;;5016269;28;25136;-75
2022/02/18 09:53:47;;;;;;;8.88;3.40;;;11.10;99.90;;;;;;5015522;28;25087;-74
2022/02/18 09:56:16;;;;;;;5.45;2.67;;;11.20;99.90;;;;;;4997977;28;25053;-76
2022/02/18 09:58:42;;;;;;;5.25;3.60;;;11.20;99.90;;;;;;5014790;28;25102;-76
2022/02/18 10:01:08;;;;;;;2.80;2.35;;;11.30;99.90;;;;;;5015097;28;25106;-73
2022/02/18 10:03:34;;;;;;;5.50;2.42;;;11.30;99.90;;;;;;5012100;28;25105;-75
2022/02/18 10:06:00;;;;;;;2.78;1.75;;;11.30;99.90;;;;;;4993123;28;25074;-76
2022/02/18 10:08:28;;;;;;;6.38;2.28;;;11.50;99.90;;;;;;5010935;28;25147;-78
2022/02/18 10:11:02;;;;;;;4.68;1.92;;;11.50;99.90;;;;;;5013593;28;25058;-73
2022/02/18 10:13:42;;;;;;;5.78;1.75;;;11.60;99.90;;;;;;4996148;28;25150;-75
2022/02/18 10:16:14;;;;;;;3.65;1.92;;;11.60;99.90;;;;;;5028137;28;25066;-77
2022/02/18 10:18:56;;;;;;;3.40;1.95;;;11.70;99.90;;;;;;5017875;28;25099;-74
2022/02/18 10:21:37;;;;;;;3.28;1.48;;;11.70;99.90;;;;;;5032665;28;25053;-72
2022/02/18 10:24:17;;;;;;;3.60;1.80;;;11.80;99.90;;;;;;5028522;28;25074;-75
2022/02/18 10:26:43;;;;;;;2.60;1.50;;;11.90;99.90;;;;;;5018682;28;25074;-74
2022/02/18 10:29:18;;;;;;;2.63;1.52;;;11.90;99.90;;;;;;5006671;28;25110;-72
2022/02/18 10:31:44;;;;;;;2.50;0.90;;;11.90;99.90;;;;;;5016456;28;25098;-75
2022/02/18 10:34:11;;;;;;;2.72;1.42;;;11.90;99.90;;;;;;5033525;28;25043;-73
2022/02/18 10:36:42;;;;;;;1.50;0.82;;;11.90;99.90;;;;;;5035748;28;25078;-74
2022/02/18 10:39:36;;;;;;;1.88;1.17;;;12.00;99.90;;;;;;5033726;28;25103;-75
2022/02/18 10:42:02;;;;;;;2.05;1.38;;;12.00;99.90;;;;;;5032462;28;25077;-75
2022/02/18 10:44:30;;;;;;;2.05;1.00;;;12.10;99.90;;;;;;5031358;28;25084;-74
2022/02/18 10:46:56;;;;;;;2.72;1.45;;;12.10;99.90;;;;;;5033944;28;25070;-74
2022/02/18 10:49:32;;;;;;;1.55;1.17;;;12.20;99.90;;;;;;5016538;28;25080;-76
2022/02/18 10:52:03;;;;;;;2.13;1.00;;;12.20;99.90;;;;;;5031490;28;25079;-76
2022/02/18 10:54:33;;;;;;;5.95;1.20;;;12.20;99.90;;;;;;5001672;28;25111;-76
2022/02/18 10:57:12;;;;;;;1.30;1.17;;;12.30;99.90;;;;;;5012849;28;25128;-76
2022/02/18 10:59:38;;;;;;;2.53;1.08;;;12.30;99.90;;;;;;5012538;28;25079;-73
2022/02/18 11:02:03;;;;;;;0.82;0.82;;;12.30;99.90;;;;;;5012674;28;25083;-74
2022/02/18 11:04:29;;;;;;;1.13;0.90;;;12.30;99.90;;;;;;5010892;28;25054;-76
2022/02/18 11:07:11;;;;;;;2.67;1.00;;;12.40;99.90;;;;;;5004314;28;25115;-75
2022/02/18 11:09:37;;;;;;;0.70;0.70;;;12.40;99.90;;;;;;5010829;28;25106;-75
2022/02/18 11:12:08;;;;;;;1.35;0.77;;;12.50;99.90;;;;;;4992492;28;25089;-74
2022/02/18 11:14:36;;;;;;;1.30;0.70;;;12.40;99.90;;;;;;5010392;28;25061;-75
2022/02/18 11:17:02;;;;;;;4.05;0.95;;;12.50;99.90;;;;;;5011012;28;25058;-74
2022/02/18 11:19:28;;;;;;;3.63;0.70;;;12.50;99.90;;;;;;5024774;28;25083;-75
2022/02/18 11:21:54;;;;;;;1.48;0.80;;;12.40;99.90;;;;;;5019444;28;25128;-75
2022/02/18 11:24:24;;;;;;;1.05;0.80;;;12.40;99.90;;;;;;5013584;28;25054;-76
2022/02/18 11:26:51;;;;;;;1.10;0.88;;;12.40;99.90;;;;;;5012802;28;25051;-75
2022/02/18 11:29:18;;;;;;;0.50;0.50;;;12.40;99.90;;;;;;5011251;28;25079;-78
2022/02/18 11:31:47;;;;;;;2.35;0.90;;;12.50;99.90;;;;;;4994196;28;25098;-74
2022/02/18 11:34:45;;;;;;;2.47;1.00;;;12.60;99.90;;;;;;5012277;28;25079;-78
2022/02/18 11:37:22;;;;;;;6.53;1.10;;;12.60;99.90;;;;;;5012071;28;25045;-72
2022/02/18 11:40:14;;;;;;;1.73;0.90;;;12.50;99.90;;;;;;5010791;28;25073;-76
2022/02/18 11:42:52;;;;;;;1.50;1.02;;;12.30;99.90;;;;;;4994373;28;25185;-75
2022/02/18 11:45:19;;;;;;;2.05;1.40;;;12.20;99.90;;;;;;5011495;28;25087;-76
2022/02/18 11:47:48;;;;;;;2.30;1.10;;;12.10;99.90;;;;;;5011281;28;25079;-73
2022/02/18 11:50:17;;;;;;;10.30;1.60;;;12.10;99.90;;;;;;4975937;28;25126;-75
2022/02/18 11:52:45;;;;;;;12.18;2.65;;;11.70;99.90;;;;;;5010926;28;25129;-74
2022/02/18 11:55:36;;;;;;;22.08;3.97;;;10.80;99.90;;;;;;5011810;28;25135;-74
2022/02/18 11:58:12;;;;;;;21.70;4.53;;;10.30;99.90;;;;;;5011851;28;25067;-75
2022/02/18 12:00:49;;;;;;;13.93;3.70;;;10.00;99.90;;;;;;5009886;28;25137;-74
2022/02/18 12:03:23;;;;;;;15.68;4.63;;;9.90;99.90;;;;;;5010740;28;25065;-76
2022/02/18 12:06:10;;;;;;;23.70;4.15;;;9.90;99.90;;;;;;5010821;28;25063;-77
2022/02/18 12:08:45;;;;;;;16.67;3.45;;;9.90;99.90;;;;;;5011752;28;25077;-75
2022/02/18 12:11:15;;;;;;;15.45;3.00;;;9.90;99.90;;;;;;5012414;28;25154;-73
2022/02/18 12:13:59;;;;;;;18.70;2.92;;;9.90;99.90;;;;;;4993353;28;25089;-74
2022/02/18 12:16:26;;;;;;;15.75;3.70;;;9.90;99.90;;;;;;5010996;28;25072;-76
2022/02/18 12:19:14;;;;;;;14.30;3.08;;;9.90;99.90;;;;;;5010125;28;25135;-74
2022/02/18 12:21:55;;;;;;;13.93;3.45;;;9.90;99.90;;;;;;5009984;28;25057;-76
2022/02/18 12:24:39;;;;;;;15.15;2.35;;;9.90;99.90;;;;;;5010037;28;25081;-75
2022/02/18 12:27:31;;;;;;;17.90;3.17;;;9.90;99.90;;;;;;4994053;28;25061;-78
2022/02/18 12:30:02;;;;;;;15.13;3.22;;;9.90;99.90;;;;;;5000059;28;25062;-76
2022/02/18 12:32:28;;;;;;;11.73;2.67;;;9.90;99.90;;;;;;5013199;28;25072;-74
2022/02/18 12:35:03;;;;;;;20.17;3.40;;;9.90;99.90;;;;;;5010050;28;25151;-74
2022/02/18 12:37:29;;;;;;;14.73;2.95;;;9.90;99.90;;;;;;5010310;28;25073;-77
2022/02/18 12:39:57;;;;;;;13.27;2.78;;;9.90;99.90;;;;;;5011210;28;25069;-74
2022/02/18 12:42:25;;;;;;;14.43;2.53;;;9.90;99.90;;;;;;5011960;28;25095;-74
2022/02/18 12:44:53;;;;;;;11.55;3.30;;;9.90;99.90;;;;;;5011796;28;25059;-76
2022/02/18 12:47:20;;;;;;;18.92;3.67;;;9.90;99.90;;;;;;5011718;28;25089;-77